^^
Station Historical Data
 
Daily Summary for July 25, 2017 Units:  English    Metric   Both
« Previous Day
Next Day »
Daily Weekly Monthly Yearly Custom
  Current: High: Low: Average:
Temperature: 72.1 °F 72.8 °F 70.7 °F 72 °F
Dew Point: 71.5 °F 71.9 °F 69.8 °F 71.1 °F
Humidity: 98% 98% 96% 97%
Wind Speed: 0.0mph 0.0mph 0.0mph 0mph
Wind Gust: 0.0mph 0.0mph - -
WindCalm - - North
Pressure: 30.05 in 30.05 in 30.00 in -
Precipitation: 0.00 in      
Historical Graphs
 
 
Tabular Data for July 25, 2017
Time Temperature Dew Point Pressure Wind Wind Speed Wind Gust Humidity Rainfall Rate (Hourly) solar Conditions
00:18 72.5 °F 71.3 °F 30.00 in Calm     96% 0.00 in WeatherDisplay:10.37 W/m2 CLR
00:23 72.4 °F 71.2 °F 30.00 in Calm     96% 0.00 in WeatherDisplay:10.37 W/m2 CLR
00:28 72.5 °F 71.3 °F 30.01 in Calm     96% 0.00 in WeatherDisplay:10.37 W/m2 CLR
00:33 72.6 °F 71.4 °F 30.00 in Calm     96% 0.00 in WeatherDisplay:10.37 W/m2 CLR
00:38 72.6 °F 71.4 °F 30.00 in Calm     96% 0.00 in WeatherDisplay:10.37 W/m2 CLR
00:43 72.7 °F 71.5 °F 30.00 in Calm     96% 0.00 in WeatherDisplay:10.37 W/m2 CLR
00:48 72.8 °F 71.6 °F 30.00 in Calm     96% 0.00 in WeatherDisplay:10.37 W/m2 CLR
00:53 72.8 °F 71.6 °F 30.00 in Calm     96% 0.00 in WeatherDisplay:10.37 W/m2 CLR
00:58 72.8 °F 71.9 °F 30.00 in Calm     97% 0.00 in WeatherDisplay:10.37 W/m2 CLR
01:03 72.8 °F 71.9 °F 30.01 in Calm     97% 0.00 in WeatherDisplay:10.37 W/m2 CLR
01:08 72.8 °F 71.9 °F 30.01 in Calm     97% 0.00 in WeatherDisplay:10.37 W/m2 CLR
01:13 72.7 °F 71.8 °F 30.01 in Calm     97% 0.00 in WeatherDisplay:10.37 W/m2 CLR
01:18 72.6 °F 71.7 °F 30.01 in Calm     97% 0.00 in WeatherDisplay:10.37 W/m2 CLR
01:23 72.5 °F 71.6 °F 30.01 in Calm     97% 0.00 in WeatherDisplay:10.37 W/m2 CLR
01:28 72.5 °F 71.6 °F 30.01 in Calm     97% 0.00 in WeatherDisplay:10.37 W/m2 CLR
01:33 72.6 °F 71.7 °F 30.01 in Calm     97% 0.00 in WeatherDisplay:10.37 W/m2 CLR
01:38 72.6 °F 71.7 °F 30.01 in Calm     97% 0.00 in WeatherDisplay:10.37 W/m2 CLR
01:43 72.6 °F 71.7 °F 30.01 in Calm     97% 0.00 in WeatherDisplay:10.37 W/m2 CLR
01:48 72.6 °F 71.7 °F 30.01 in Calm     97% 0.00 in WeatherDisplay:10.37 W/m2 CLR
01:53 72.5 °F 71.6 °F 30.01 in Calm     97% 0.00 in WeatherDisplay:10.37 W/m2 CLR
01:58 72.4 °F 71.5 °F 30.01 in Calm     97% 0.00 in WeatherDisplay:10.37 W/m2 CLR
01:59 72.4 °F 71.5 °F 30.01 in Calm     97% 0.00 in WeatherDisplay:10.37 W/m2 CLR
02:04 72.2 °F 71.3 °F 30.01 in Calm     97% 0.00 in WeatherDisplay:10.37 W/m2 CLR
02:09 72.2 °F 71.3 °F 30.00 in Calm     97% 0.00 in WeatherDisplay:10.37 W/m2 CLR
02:14 72.1 °F 71.2 °F 30.00 in Calm     97% 0.00 in WeatherDisplay:10.37 W/m2 CLR
02:19 72.0 °F 71.1 °F 30.00 in Calm     97% 0.00 in WeatherDisplay:10.37 W/m2 CLR
02:24 72.0 °F 71.1 °F 30.00 in Calm     97% 0.00 in WeatherDisplay:10.37 W/m2 CLR
02:29 72.0 °F 71.1 °F 30.00 in Calm     97% 0.00 in WeatherDisplay:10.37 W/m2 CLR
02:34 71.9 °F 71.0 °F 30.00 in Calm     97% 0.00 in WeatherDisplay:10.37 W/m2 CLR
02:39 71.8 °F 70.9 °F 30.00 in Calm     97% 0.00 in WeatherDisplay:10.37 W/m2 CLR
02:44 71.7 °F 70.8 °F 30.00 in Calm     97% 0.00 in WeatherDisplay:10.37 W/m2 CLR
02:49 71.8 °F 70.9 °F 30.00 in Calm     97% 0.00 in WeatherDisplay:10.37 W/m2 CLR
02:54 71.7 °F 70.8 °F 30.00 in Calm     97% 0.00 in WeatherDisplay:10.37 W/m2 CLR
02:59 71.7 °F 70.8 °F 30.00 in Calm     97% 0.00 in WeatherDisplay:10.37 W/m2 CLR
03:00 71.7 °F 70.8 °F 30.00 in Calm     97% 0.00 in WeatherDisplay:10.37 W/m2 CLR
03:05 71.6 °F 70.7 °F 30.00 in Calm     97% 0.00 in WeatherDisplay:10.37 W/m2 CLR
03:06 71.6 °F 70.7 °F 30.00 in Calm     97% 0.00 in WeatherDisplay:10.37 W/m2 CLR
03:10 71.5 °F 70.6 °F 30.00 in Calm     97% 0.00 in WeatherDisplay:10.37 W/m2 CLR
03:15 71.5 °F 70.6 °F 30.00 in Calm     97% 0.00 in WeatherDisplay:10.37 W/m2 CLR
03:20 71.4 °F 70.5 °F 30.00 in Calm     97% 0.00 in WeatherDisplay:10.37 W/m2 CLR
03:25 71.4 °F 70.5 °F 30.01 in Calm     97% 0.00 in WeatherDisplay:10.37 W/m2 CLR
03:30 71.3 °F 70.4 °F 30.01 in Calm     97% 0.00 in WeatherDisplay:10.37 W/m2 CLR
03:35 71.3 °F 70.4 °F 30.00 in Calm     97% 0.00 in WeatherDisplay:10.37 W/m2 CLR
03:40 71.2 °F 70.3 °F 30.00 in Calm     97% 0.00 in WeatherDisplay:10.37 W/m2 CLR
03:45 71.3 °F 70.4 °F 30.00 in Calm     97% 0.00 in WeatherDisplay:10.37 W/m2 CLR
03:50 71.2 °F 70.3 °F 30.00 in Calm     97% 0.00 in WeatherDisplay:10.37 W/m2 CLR
03:55 71.1 °F 70.2 °F 30.00 in Calm     97% 0.00 in WeatherDisplay:10.37 W/m2 CLR
04:00 71.0 °F 70.1 °F 30.01 in Calm     97% 0.00 in WeatherDisplay:10.37 W/m2 CLR
04:05 70.8 °F 69.9 °F 30.01 in Calm     97% 0.00 in WeatherDisplay:10.37 W/m2 CLR
04:10 70.8 °F 69.9 °F 30.01 in Calm     97% 0.00 in WeatherDisplay:10.37 W/m2 CLR
04:15 70.7 °F 69.8 °F 30.01 in Calm     97% 0.00 in WeatherDisplay:10.37 W/m2 CLR
04:20 70.8 °F 69.9 °F 30.01 in Calm     97% 0.00 in WeatherDisplay:10.37 W/m2 CLR
04:25 71.2 °F 70.6 °F 30.01 in Calm     98% 0.00 in WeatherDisplay:10.37 W/m2 CLR
04:30 71.5 °F 70.9 °F 30.01 in Calm     98% 0.00 in WeatherDisplay:10.37 W/m2 CLR
04:35 71.5 °F 70.9 °F 30.01 in Calm     98% 0.00 in WeatherDisplay:10.37 W/m2 CLR
04:40 71.6 °F 71.0 °F 30.02 in Calm     98% 0.00 in WeatherDisplay:10.37 W/m2 CLR
04:45 71.9 °F 71.3 °F 30.02 in Calm     98% 0.00 in WeatherDisplay:10.37 W/m2 CLR
04:50 72.1 °F 71.5 °F 30.02 in Calm     98% 0.00 in WeatherDisplay:10.37 W/m2 CLR
04:55 72.0 °F 71.4 °F 30.02 in Calm     98% 0.00 in WeatherDisplay:10.37 W/m2 CLR
05:00 72.0 °F 71.4 °F 30.03 in Calm     98% 0.00 in WeatherDisplay:10.37 W/m2 CLR
05:05 72.2 °F 71.6 °F 30.03 in Calm     98% 0.00 in WeatherDisplay:10.37 W/m2 CLR
05:10 72.2 °F 71.6 °F 30.03 in Calm     98% 0.00 in WeatherDisplay:10.37 W/m2 CLR
05:15 72.2 °F 71.6 °F 30.04 in Calm     98% 0.00 in WeatherDisplay:10.37 W/m2 CLR
05:20 72.1 °F 71.5 °F 30.04 in Calm     98% 0.00 in WeatherDisplay:10.37 W/m2 CLR
05:25 72.1 °F 71.5 °F 30.04 in Calm     98% 0.00 in WeatherDisplay:10.37 W/m2 CLR
05:30 72.0 °F 71.4 °F 30.04 in Calm     98% 0.00 in WeatherDisplay:10.37 W/m2 CLR
05:35 71.9 °F 71.3 °F 30.04 in Calm     98% 0.00 in WeatherDisplay:10.37 W/m2 CLR
05:40 71.9 °F 71.3 °F 30.04 in Calm     98% 0.00 in WeatherDisplay:10.37 W/m2 CLR
05:45 71.9 °F 71.3 °F 30.04 in Calm     98% 0.00 in WeatherDisplay:10.37 W/m2 CLR
05:50 71.9 °F 71.3 °F 30.04 in Calm     98% 0.00 in WeatherDisplay:10.37 W/m2 CLR
05:55 72.0 °F 71.4 °F 30.04 in Calm     98% 0.00 in WeatherDisplay:10.37 W/m2 CLR
06:00 72.0 °F 71.4 °F 30.04 in Calm     98% 0.00 in WeatherDisplay:10.37 W/m2 CLR
06:05 72.0 °F 71.4 °F 30.04 in Calm     98% 0.00 in WeatherDisplay:10.37 W/m2 CLR
06:10 72.0 °F 71.4 °F 30.04 in Calm     98% 0.00 in WeatherDisplay:10.37 W/m2 CLR
06:15 72.0 °F 71.4 °F 30.05 in Calm     98% 0.00 in WeatherDisplay:10.37 W/m2 CLR
06:20 72.0 °F 71.4 °F 30.05 in Calm     98% 0.00 in WeatherDisplay:10.37 W/m2 CLR
06:25 72.0 °F 71.4 °F 30.05 in Calm     98% 0.00 in WeatherDisplay:10.37 W/m2 CLR
06:30 72.0 °F 71.4 °F 30.05 in Calm     98% 0.00 in WeatherDisplay:10.37 W/m2 CLR
06:35 72.0 °F 71.4 °F 30.05 in Calm     98% 0.00 in WeatherDisplay:10.37 W/m2 CLR
06:40 72.0 °F 71.4 °F 30.05 in Calm     98% 0.00 in WeatherDisplay:10.37 W/m2 CLR
06:45 72.0 °F 71.4 °F 30.05 in Calm     98% 0.00 in WeatherDisplay:10.37 W/m2 CLR
06:50 72.1 °F 71.5 °F 30.05 in Calm     98% 0.00 in WeatherDisplay:10.37 W/m2 CLR
Gayle H. Riggsbee Observatory (GHRO)
Compliments of Weather Underground - 1 mb